sensor_id;sensor_type;location;lat;lon;timestamp;P1;durP1;ratioP1;P2;durP2;ratioP2
39218;SDS011;24934;52.752;6.964;2023-04-25T00:00:11;43.60;;;24.93;;
39218;SDS011;24934;52.752;6.964;2023-04-25T00:02:36;51.93;;;23.67;;
39218;SDS011;24934;52.752;6.964;2023-04-25T00:05:08;36.70;;;23.73;;
39218;SDS011;24934;52.752;6.964;2023-04-25T00:07:34;43.90;;;23.80;;
39218;SDS011;24934;52.752;6.964;2023-04-25T00:10:00;38.97;;;23.57;;
39218;SDS011;24934;52.752;6.964;2023-04-25T00:12:25;43.27;;;24.20;;
39218;SDS011;24934;52.752;6.964;2023-04-25T00:14:53;37.83;;;23.60;;
39218;SDS011;24934;52.752;6.964;2023-04-25T00:17:22;46.43;;;23.67;;
39218;SDS011;24934;52.752;6.964;2023-04-25T00:19:49;42.80;;;24.13;;
39218;SDS011;24934;52.752;6.964;2023-04-25T00:22:15;46.43;;;25.23;;
39218;SDS011;24934;52.752;6.964;2023-04-25T00:24:42;46.77;;;24.20;;
39218;SDS011;24934;52.752;6.964;2023-04-25T00:27:08;43.80;;;24.30;;
39218;SDS011;24934;52.752;6.964;2023-04-25T00:29:33;44.50;;;24.63;;
39218;SDS011;24934;52.752;6.964;2023-04-25T00:31:59;38.60;;;23.47;;
39218;SDS011;24934;52.752;6.964;2023-04-25T00:34:28;44.00;;;24.90;;
39218;SDS011;24934;52.752;6.964;2023-04-25T00:36:54;48.33;;;25.27;;
39218;SDS011;24934;52.752;6.964;2023-04-25T00:39:19;40.33;;;25.20;;
39218;SDS011;24934;52.752;6.964;2023-04-25T00:41:45;41.27;;;25.07;;
39218;SDS011;24934;52.752;6.964;2023-04-25T00:44:24;45.60;;;25.07;;
39218;SDS011;24934;52.752;6.964;2023-04-25T00:46:51;44.23;;;26.07;;
39218;SDS011;24934;52.752;6.964;2023-04-25T00:49:18;47.73;;;26.17;;
39218;SDS011;24934;52.752;6.964;2023-04-25T00:51:44;44.47;;;25.27;;
39218;SDS011;24934;52.752;6.964;2023-04-25T00:54:10;45.90;;;26.67;;
39218;SDS011;24934;52.752;6.964;2023-04-25T00:56:37;49.80;;;26.43;;
39218;SDS011;24934;52.752;6.964;2023-04-25T00:59:03;48.57;;;24.87;;
39218;SDS011;24934;52.752;6.964;2023-04-25T01:01:32;43.97;;;25.10;;
39218;SDS011;24934;52.752;6.964;2023-04-25T01:03:58;40.03;;;25.03;;
39218;SDS011;24934;52.752;6.964;2023-04-25T01:06:28;52.20;;;24.57;;
39218;SDS011;24934;52.752;6.964;2023-04-25T01:08:53;37.77;;;25.03;;
39218;SDS011;24934;52.752;6.964;2023-04-25T01:11:19;41.07;;;24.73;;
39218;SDS011;24934;52.752;6.964;2023-04-25T01:13:45;38.73;;;25.63;;
39218;SDS011;24934;52.752;6.964;2023-04-25T01:16:13;50.97;;;26.00;;
39218;SDS011;24934;52.752;6.964;2023-04-25T01:18:39;47.73;;;26.30;;
39218;SDS011;24934;52.752;6.964;2023-04-25T01:21:07;44.93;;;26.80;;
39218;SDS011;24934;52.752;6.964;2023-04-25T01:23:34;50.40;;;27.03;;
39218;SDS011;24934;52.752;6.964;2023-04-25T01:26:01;54.30;;;27.10;;
39218;SDS011;24934;52.752;6.964;2023-04-25T01:28:27;43.63;;;27.00;;
39218;SDS011;24934;52.752;6.964;2023-04-25T01:30:53;51.00;;;27.63;;
39218;SDS011;24934;52.752;6.964;2023-04-25T01:33:20;50.03;;;27.30;;
39218;SDS011;24934;52.752;6.964;2023-04-25T01:35:46;47.87;;;27.27;;
39218;SDS011;24934;52.752;6.964;2023-04-25T01:38:14;46.17;;;27.10;;
39218;SDS011;24934;52.752;6.964;2023-04-25T01:40:40;41.07;;;26.83;;
39218;SDS011;24934;52.752;6.964;2023-04-25T01:43:06;41.37;;;26.20;;
39218;SDS011;24934;52.752;6.964;2023-04-25T01:45:35;34.90;;;26.23;;
39218;SDS011;24934;52.752;6.964;2023-04-25T01:48:04;39.00;;;26.63;;
39218;SDS011;24934;52.752;6.964;2023-04-25T01:50:30;49.13;;;26.20;;
39218;SDS011;24934;52.752;6.964;2023-04-25T01:52:56;48.30;;;27.27;;
39218;SDS011;24934;52.752;6.964;2023-04-25T01:55:22;45.70;;;26.77;;
39218;SDS011;24934;52.752;6.964;2023-04-25T01:57:47;50.10;;;26.17;;
39218;SDS011;24934;52.752;6.964;2023-04-25T02:00:13;44.53;;;27.30;;
39218;SDS011;24934;52.752;6.964;2023-04-25T02:02:39;42.80;;;28.77;;
39218;SDS011;24934;52.752;6.964;2023-04-25T02:05:05;48.33;;;28.20;;
39218;SDS011;24934;52.752;6.964;2023-04-25T02:07:31;54.83;;;28.53;;
39218;SDS011;24934;52.752;6.964;2023-04-25T02:09:57;43.93;;;27.33;;
39218;SDS011;24934;52.752;6.964;2023-04-25T02:12:23;39.47;;;28.47;;
39218;SDS011;24934;52.752;6.964;2023-04-25T02:14:51;45.27;;;29.13;;
39218;SDS011;24934;52.752;6.964;2023-04-25T02:17:16;45.67;;;28.03;;
39218;SDS011;24934;52.752;6.964;2023-04-25T02:19:42;52.00;;;28.33;;
39218;SDS011;24934;52.752;6.964;2023-04-25T02:22:11;36.60;;;28.23;;
39218;SDS011;24934;52.752;6.964;2023-04-25T02:24:37;52.20;;;28.67;;
39218;SDS011;24934;52.752;6.964;2023-04-25T02:27:06;49.70;;;30.83;;
39218;SDS011;24934;52.752;6.964;2023-04-25T02:29:32;51.17;;;29.10;;
39218;SDS011;24934;52.752;6.964;2023-04-25T02:31:58;50.13;;;28.93;;
39218;SDS011;24934;52.752;6.964;2023-04-25T02:34:24;44.47;;;29.43;;
39218;SDS011;24934;52.752;6.964;2023-04-25T02:36:50;49.27;;;29.30;;
39218;SDS011;24934;52.752;6.964;2023-04-25T02:39:16;46.07;;;29.87;;
39218;SDS011;24934;52.752;6.964;2023-04-25T02:41:41;47.90;;;30.23;;
39218;SDS011;24934;52.752;6.964;2023-04-25T02:44:07;44.53;;;30.23;;
39218;SDS011;24934;52.752;6.964;2023-04-25T02:46:33;49.00;;;30.03;;
39218;SDS011;24934;52.752;6.964;2023-04-25T02:49:01;50.00;;;30.50;;
39218;SDS011;24934;52.752;6.964;2023-04-25T02:51:27;47.73;;;30.77;;
39218;SDS011;24934;52.752;6.964;2023-04-25T02:53:52;45.50;;;29.30;;
39218;SDS011;24934;52.752;6.964;2023-04-25T02:56:18;50.83;;;30.23;;
39218;SDS011;24934;52.752;6.964;2023-04-25T02:58:43;49.97;;;29.47;;
39218;SDS011;24934;52.752;6.964;2023-04-25T03:01:10;48.30;;;29.67;;
39218;SDS011;24934;52.752;6.964;2023-04-25T03:03:35;39.13;;;28.37;;
39218;SDS011;24934;52.752;6.964;2023-04-25T03:06:01;55.73;;;28.00;;
39218;SDS011;24934;52.752;6.964;2023-04-25T03:08:29;50.67;;;28.60;;
39218;SDS011;24934;52.752;6.964;2023-04-25T03:10:57;42.73;;;28.37;;
39218;SDS011;24934;52.752;6.964;2023-04-25T03:13:23;42.03;;;29.23;;
39218;SDS011;24934;52.752;6.964;2023-04-25T03:15:49;51.97;;;27.80;;
39218;SDS011;24934;52.752;6.964;2023-04-25T03:18:15;45.10;;;27.53;;
39218;SDS011;24934;52.752;6.964;2023-04-25T03:20:40;44.03;;;27.60;;
39218;SDS011;24934;52.752;6.964;2023-04-25T03:23:06;42.23;;;28.07;;
39218;SDS011;24934;52.752;6.964;2023-04-25T03:25:32;55.93;;;28.00;;
39218;SDS011;24934;52.752;6.964;2023-04-25T03:27:58;44.53;;;26.63;;
39218;SDS011;24934;52.752;6.964;2023-04-25T03:30:23;41.40;;;27.33;;
39218;SDS011;24934;52.752;6.964;2023-04-25T03:32:49;48.87;;;26.90;;
39218;SDS011;24934;52.752;6.964;2023-04-25T03:35:15;46.13;;;27.83;;
39218;SDS011;24934;52.752;6.964;2023-04-25T03:37:41;45.27;;;27.20;;
39218;SDS011;24934;52.752;6.964;2023-04-25T03:40:10;44.73;;;26.90;;
39218;SDS011;24934;52.752;6.964;2023-04-25T03:42:36;38.60;;;26.13;;
39218;SDS011;24934;52.752;6.964;2023-04-25T03:45:01;44.93;;;26.40;;
39218;SDS011;24934;52.752;6.964;2023-04-25T03:47:27;41.47;;;26.17;;
39218;SDS011;24934;52.752;6.964;2023-04-25T03:49:53;37.57;;;26.13;;
39218;SDS011;24934;52.752;6.964;2023-04-25T03:52:18;42.13;;;26.47;;
39218;SDS011;24934;52.752;6.964;2023-04-25T03:54:44;37.90;;;25.93;;
39218;SDS011;24934;52.752;6.964;2023-04-25T03:57:13;45.57;;;25.87;;
39218;SDS011;24934;52.752;6.964;2023-04-25T03:59:38;37.63;;;25.70;;
39218;SDS011;24934;52.752;6.964;2023-04-25T04:02:04;42.73;;;25.97;;
39218;SDS011;24934;52.752;6.964;2023-04-25T04:04:31;38.30;;;25.07;;
39218;SDS011;24934;52.752;6.964;2023-04-25T04:06:56;41.43;;;24.17;;
39218;SDS011;24934;52.752;6.964;2023-04-25T04:09:25;43.83;;;24.00;;
39218;SDS011;24934;52.752;6.964;2023-04-25T04:11:51;35.97;;;23.80;;
39218;SDS011;24934;52.752;6.964;2023-04-25T04:14:19;32.63;;;23.63;;
39218;SDS011;24934;52.752;6.964;2023-04-25T04:16:44;38.70;;;24.17;;
39218;SDS011;24934;52.752;6.964;2023-04-25T04:19:10;40.17;;;23.97;;
39218;SDS011;24934;52.752;6.964;2023-04-25T04:21:41;36.77;;;24.73;;
39218;SDS011;24934;52.752;6.964;2023-04-25T04:24:07;40.20;;;24.50;;
39218;SDS011;24934;52.752;6.964;2023-04-25T04:26:32;39.87;;;24.13;;
39218;SDS011;24934;52.752;6.964;2023-04-25T04:28:59;37.90;;;24.53;;
39218;SDS011;24934;52.752;6.964;2023-04-25T04:31:25;33.03;;;23.57;;
39218;SDS011;24934;52.752;6.964;2023-04-25T04:33:50;35.37;;;23.57;;
39218;SDS011;24934;52.752;6.964;2023-04-25T04:36:16;29.63;;;23.03;;
39218;SDS011;24934;52.752;6.964;2023-04-25T04:38:44;32.57;;;23.23;;
39218;SDS011;24934;52.752;6.964;2023-04-25T04:41:10;37.83;;;23.77;;
39218;SDS011;24934;52.752;6.964;2023-04-25T04:43:36;33.67;;;23.00;;
39218;SDS011;24934;52.752;6.964;2023-04-25T04:46:01;34.60;;;23.90;;
39218;SDS011;24934;52.752;6.964;2023-04-25T04:48:29;32.77;;;21.90;;
39218;SDS011;24934;52.752;6.964;2023-04-25T04:51:01;26.47;;;21.90;;
39218;SDS011;24934;52.752;6.964;2023-04-25T04:53:29;26.23;;;22.33;;
39218;SDS011;24934;52.752;6.964;2023-04-25T04:55:55;29.03;;;21.63;;
39218;SDS011;24934;52.752;6.964;2023-04-25T04:58:21;34.93;;;22.03;;
39218;SDS011;24934;52.752;6.964;2023-04-25T05:00:47;28.50;;;21.83;;
39218;SDS011;24934;52.752;6.964;2023-04-25T05:03:12;31.00;;;22.67;;
39218;SDS011;24934;52.752;6.964;2023-04-25T05:05:38;27.00;;;21.50;;
39218;SDS011;24934;52.752;6.964;2023-04-25T05:08:08;26.87;;;21.67;;
39218;SDS011;24934;52.752;6.964;2023-04-25T05:10:33;27.43;;;21.77;;
39218;SDS011;24934;52.752;6.964;2023-04-25T05:12:59;24.93;;;21.90;;
39218;SDS011;24934;52.752;6.964;2023-04-25T05:15:24;24.50;;;21.90;;
39218;SDS011;24934;52.752;6.964;2023-04-25T05:17:53;26.70;;;22.10;;
39218;SDS011;24934;52.752;6.964;2023-04-25T05:20:18;28.00;;;21.40;;
39218;SDS011;24934;52.752;6.964;2023-04-25T05:22:44;27.60;;;21.63;;
39218;SDS011;24934;52.752;6.964;2023-04-25T05:25:10;25.83;;;22.00;;
39218;SDS011;24934;52.752;6.964;2023-04-25T05:27:36;25.43;;;22.07;;
39218;SDS011;24934;52.752;6.964;2023-04-25T05:30:01;27.60;;;22.30;;
39218;SDS011;24934;52.752;6.964;2023-04-25T05:32:27;24.67;;;22.13;;
39218;SDS011;24934;52.752;6.964;2023-04-25T05:34:53;25.20;;;22.43;;
39218;SDS011;24934;52.752;6.964;2023-04-25T05:37:18;23.93;;;21.50;;
39218;SDS011;24934;52.752;6.964;2023-04-25T05:39:44;23.70;;;21.20;;
39218;SDS011;24934;52.752;6.964;2023-04-25T05:42:09;23.70;;;21.17;;
39218;SDS011;24934;52.752;6.964;2023-04-25T05:44:35;25.60;;;21.10;;
39218;SDS011;24934;52.752;6.964;2023-04-25T05:47:01;26.93;;;21.70;;
39218;SDS011;24934;52.752;6.964;2023-04-25T05:49:26;28.10;;;20.93;;
39218;SDS011;24934;52.752;6.964;2023-04-25T05:51:52;23.53;;;20.47;;
39218;SDS011;24934;52.752;6.964;2023-04-25T05:54:18;23.30;;;20.20;;
39218;SDS011;24934;52.752;6.964;2023-04-25T05:56:43;28.57;;;20.97;;
39218;SDS011;24934;52.752;6.964;2023-04-25T05:59:09;25.83;;;21.20;;
39218;SDS011;24934;52.752;6.964;2023-04-25T06:01:35;23.23;;;20.40;;
39218;SDS011;24934;52.752;6.964;2023-04-25T06:04:00;24.10;;;19.33;;
39218;SDS011;24934;52.752;6.964;2023-04-25T06:06:26;26.27;;;19.53;;
39218;SDS011;24934;52.752;6.964;2023-04-25T06:08:52;24.90;;;19.60;;
39218;SDS011;24934;52.752;6.964;2023-04-25T06:11:18;24.90;;;19.43;;
39218;SDS011;24934;52.752;6.964;2023-04-25T06:13:44;24.57;;;18.93;;
39218;SDS011;24934;52.752;6.964;2023-04-25T06:16:10;20.33;;;18.13;;
39218;SDS011;24934;52.752;6.964;2023-04-25T06:18:36;20.77;;;18.10;;
39218;SDS011;24934;52.752;6.964;2023-04-25T06:21:02;25.33;;;18.20;;
39218;SDS011;24934;52.752;6.964;2023-04-25T06:23:27;26.47;;;18.60;;
39218;SDS011;24934;52.752;6.964;2023-04-25T06:25:53;26.10;;;19.37;;
39218;SDS011;24934;52.752;6.964;2023-04-25T06:28:18;27.87;;;18.97;;
39218;SDS011;24934;52.752;6.964;2023-04-25T06:30:44;20.97;;;18.80;;
39218;SDS011;24934;52.752;6.964;2023-04-25T06:33:10;26.30;;;18.40;;
39218;SDS011;24934;52.752;6.964;2023-04-25T06:35:35;24.80;;;19.03;;
39218;SDS011;24934;52.752;6.964;2023-04-25T06:38:01;27.07;;;18.67;;
39218;SDS011;24934;52.752;6.964;2023-04-25T06:40:27;24.57;;;19.13;;
39218;SDS011;24934;52.752;6.964;2023-04-25T06:42:52;28.13;;;19.70;;
39218;SDS011;24934;52.752;6.964;2023-04-25T06:45:18;23.50;;;19.57;;
39218;SDS011;24934;52.752;6.964;2023-04-25T06:47:43;26.43;;;20.07;;
39218;SDS011;24934;52.752;6.964;2023-04-25T06:50:09;23.60;;;19.73;;
39218;SDS011;24934;52.752;6.964;2023-04-25T06:52:35;27.40;;;18.57;;
39218;SDS011;24934;52.752;6.964;2023-04-25T06:55:04;28.40;;;19.23;;
39218;SDS011;24934;52.752;6.964;2023-04-25T06:57:30;26.27;;;19.17;;
39218;SDS011;24934;52.752;6.964;2023-04-25T06:59:56;25.90;;;19.10;;
39218;SDS011;24934;52.752;6.964;2023-04-25T07:02:23;27.27;;;18.80;;
39218;SDS011;24934;52.752;6.964;2023-04-25T07:04:49;22.17;;;19.80;;
39218;SDS011;24934;52.752;6.964;2023-04-25T07:07:15;24.97;;;18.57;;
39218;SDS011;24934;52.752;6.964;2023-04-25T07:09:42;25.60;;;19.50;;
39218;SDS011;24934;52.752;6.964;2023-04-25T07:12:07;27.57;;;19.70;;
39218;SDS011;24934;52.752;6.964;2023-04-25T07:14:33;22.50;;;18.90;;
39218;SDS011;24934;52.752;6.964;2023-04-25T07:16:58;26.57;;;19.40;;
39218;SDS011;24934;52.752;6.964;2023-04-25T07:19:24;25.00;;;18.63;;
39218;SDS011;24934;52.752;6.964;2023-04-25T07:21:51;22.87;;;19.00;;
39218;SDS011;24934;52.752;6.964;2023-04-25T07:24:17;20.67;;;18.60;;
39218;SDS011;24934;52.752;6.964;2023-04-25T07:26:43;21.97;;;19.53;;
39218;SDS011;24934;52.752;6.964;2023-04-25T07:29:09;25.07;;;19.40;;
39218;SDS011;24934;52.752;6.964;2023-04-25T07:31:35;28.00;;;19.83;;
39218;SDS011;24934;52.752;6.964;2023-04-25T07:34:01;20.23;;;17.80;;
39218;SDS011;24934;52.752;6.964;2023-04-25T07:36:26;24.33;;;19.27;;
39218;SDS011;24934;52.752;6.964;2023-04-25T07:38:52;24.83;;;18.47;;
39218;SDS011;24934;52.752;6.964;2023-04-25T07:41:18;23.90;;;18.73;;
39218;SDS011;24934;52.752;6.964;2023-04-25T07:43:43;21.27;;;17.57;;
39218;SDS011;24934;52.752;6.964;2023-04-25T07:46:09;21.33;;;18.30;;
39218;SDS011;24934;52.752;6.964;2023-04-25T07:48:34;20.60;;;17.17;;
39218;SDS011;24934;52.752;6.964;2023-04-25T07:51:00;24.80;;;18.33;;
39218;SDS011;24934;52.752;6.964;2023-04-25T07:53:26;22.80;;;19.23;;
39218;SDS011;24934;52.752;6.964;2023-04-25T07:55:51;20.90;;;18.80;;
39218;SDS011;24934;52.752;6.964;2023-04-25T07:58:17;19.98;;;17.98;;
39218;SDS011;24934;52.752;6.964;2023-04-25T08:00:46;20.88;;;17.75;;
39218;SDS011;24934;52.752;6.964;2023-04-25T08:03:12;19.33;;;17.33;;
39218;SDS011;24934;52.752;6.964;2023-04-25T08:05:38;17.48;;;15.60;;
39218;SDS011;24934;52.752;6.964;2023-04-25T08:08:03;20.05;;;16.95;;
39218;SDS011;24934;52.752;6.964;2023-04-25T08:10:31;18.83;;;16.42;;
39218;SDS011;24934;52.752;6.964;2023-04-25T08:12:58;19.52;;;17.50;;
39218;SDS011;24934;52.752;6.964;2023-04-25T08:15:24;19.10;;;16.45;;
39218;SDS011;24934;52.752;6.964;2023-04-25T08:17:51;17.63;;;15.80;;
39218;SDS011;24934;52.752;6.964;2023-04-25T08:20:16;17.50;;;15.65;;
39218;SDS011;24934;52.752;6.964;2023-04-25T08:22:42;19.27;;;15.10;;
39218;SDS011;24934;52.752;6.964;2023-04-25T08:25:08;16.60;;;15.00;;
39218;SDS011;24934;52.752;6.964;2023-04-25T08:27:36;18.45;;;15.70;;
39218;SDS011;24934;52.752;6.964;2023-04-25T08:30:02;15.57;;;14.07;;
39218;SDS011;24934;52.752;6.964;2023-04-25T08:32:29;15.30;;;13.70;;
39218;SDS011;24934;52.752;6.964;2023-04-25T08:34:54;16.08;;;14.43;;
39218;SDS011;24934;52.752;6.964;2023-04-25T08:37:20;16.92;;;15.15;;
39218;SDS011;24934;52.752;6.964;2023-04-25T08:39:46;17.08;;;15.38;;
39218;SDS011;24934;52.752;6.964;2023-04-25T08:42:17;16.42;;;14.73;;
39218;SDS011;24934;52.752;6.964;2023-04-25T08:44:46;15.70;;;14.10;;
39218;SDS011;24934;52.752;6.964;2023-04-25T08:47:13;14.82;;;13.27;;
39218;SDS011;24934;52.752;6.964;2023-04-25T08:49:39;14.02;;;12.77;;
39218;SDS011;24934;52.752;6.964;2023-04-25T08:52:09;15.82;;;12.75;;
39218;SDS011;24934;52.752;6.964;2023-04-25T08:54:37;13.40;;;12.10;;
39218;SDS011;24934;52.752;6.964;2023-04-25T08:57:11;13.23;;;12.02;;
39218;SDS011;24934;52.752;6.964;2023-04-25T08:59:37;15.07;;;13.32;;
39218;SDS011;24934;52.752;6.964;2023-04-25T09:02:05;14.68;;;13.27;;
39218;SDS011;24934;52.752;6.964;2023-04-25T09:04:35;14.93;;;13.27;;
39218;SDS011;24934;52.752;6.964;2023-04-25T09:07:01;18.17;;;14.13;;
39218;SDS011;24934;52.752;6.964;2023-04-25T09:09:26;16.35;;;14.80;;
39218;SDS011;24934;52.752;6.964;2023-04-25T09:11:52;18.07;;;15.77;;
39218;SDS011;24934;52.752;6.964;2023-04-25T09:14:20;18.40;;;16.50;;
39218;SDS011;24934;52.752;6.964;2023-04-25T09:19:25;16.60;;;15.00;;
39218;SDS011;24934;52.752;6.964;2023-04-25T09:21:56;15.90;;;14.48;;
39218;SDS011;24934;52.752;6.964;2023-04-25T09:27:07;19.15;;;15.60;;
39218;SDS011;24934;52.752;6.964;2023-04-25T09:29:35;16.92;;;15.30;;
39218;SDS011;24934;52.752;6.964;2023-04-25T09:32:18;16.23;;;14.80;;
39218;SDS011;24934;52.752;6.964;2023-04-25T09:34:55;16.20;;;14.50;;
39218;SDS011;24934;52.752;6.964;2023-04-25T09:37:28;14.65;;;12.95;;
39218;SDS011;24934;52.752;6.964;2023-04-25T09:39:56;14.13;;;12.80;;
39218;SDS011;24934;52.752;6.964;2023-04-25T09:42:24;14.35;;;12.95;;
39218;SDS011;24934;52.752;6.964;2023-04-25T09:44:53;14.70;;;13.40;;
39218;SDS011;24934;52.752;6.964;2023-04-25T09:47:19;13.77;;;12.40;;
39218;SDS011;24934;52.752;6.964;2023-04-25T09:49:47;14.15;;;12.65;;
39218;SDS011;24934;52.752;6.964;2023-04-25T09:52:19;13.23;;;11.82;;
39218;SDS011;24934;52.752;6.964;2023-04-25T09:54:46;13.85;;;12.45;;
39218;SDS011;24934;52.752;6.964;2023-04-25T09:57:14;17.27;;;12.63;;
39218;SDS011;24934;52.752;6.964;2023-04-25T09:59:44;14.95;;;13.10;;
39218;SDS011;24934;52.752;6.964;2023-04-25T10:02:15;12.48;;;11.38;;
39218;SDS011;24934;52.752;6.964;2023-04-25T10:04:44;12.15;;;10.95;;
39218;SDS011;24934;52.752;6.964;2023-04-25T10:07:15;11.68;;;10.48;;
39218;SDS011;24934;52.752;6.964;2023-04-25T10:09:41;11.98;;;10.80;;
39218;SDS011;24934;52.752;6.964;2023-04-25T10:12:07;12.45;;;11.25;;
39218;SDS011;24934;52.752;6.964;2023-04-25T10:14:34;12.82;;;11.63;;
39218;SDS011;24934;52.752;6.964;2023-04-25T10:17:00;13.65;;;12.07;;
39218;SDS011;24934;52.752;6.964;2023-04-25T10:19:26;13.77;;;12.47;;
39218;SDS011;24934;52.752;6.964;2023-04-25T10:22:10;14.23;;;13.02;;
39218;SDS011;24934;52.752;6.964;2023-04-25T10:24:42;14.30;;;13.15;;
39218;SDS011;24934;52.752;6.964;2023-04-25T10:27:09;14.80;;;13.40;;
39218;SDS011;24934;52.752;6.964;2023-04-25T10:29:35;16.05;;;14.27;;
39218;SDS011;24934;52.752;6.964;2023-04-25T10:32:01;16.20;;;14.60;;
39218;SDS011;24934;52.752;6.964;2023-04-25T10:34:43;16.55;;;14.75;;
39218;SDS011;24934;52.752;6.964;2023-04-25T10:37:12;16.08;;;14.48;;
39218;SDS011;24934;52.752;6.964;2023-04-25T10:39:38;16.00;;;14.50;;
39218;SDS011;24934;52.752;6.964;2023-04-25T10:42:06;14.32;;;13.20;;
39218;SDS011;24934;52.752;6.964;2023-04-25T10:44:33;15.80;;;14.20;;
39218;SDS011;24934;52.752;6.964;2023-04-25T10:47:00;14.73;;;13.23;;
39218;SDS011;24934;52.752;6.964;2023-04-25T10:49:43;17.02;;;15.40;;
39218;SDS011;24934;52.752;6.964;2023-04-25T10:54:56;21.50;;;19.23;;
39218;SDS011;24934;52.752;6.964;2023-04-25T10:57:32;19.25;;;17.73;;
39218;SDS011;24934;52.752;6.964;2023-04-25T11:00:06;17.67;;;16.03;;
39218;SDS011;24934;52.752;6.964;2023-04-25T11:02:38;18.83;;;17.03;;
39218;SDS011;24934;52.752;6.964;2023-04-25T11:05:07;19.33;;;17.67;;
39218;SDS011;24934;52.752;6.964;2023-04-25T11:10:11;19.53;;;17.60;;
39218;SDS011;24934;52.752;6.964;2023-04-25T11:12:36;20.07;;;18.13;;
39218;SDS011;24934;52.752;6.964;2023-04-25T11:15:05;21.95;;;19.73;;
39218;SDS011;24934;52.752;6.964;2023-04-25T11:17:32;21.65;;;19.65;;
39218;SDS011;24934;52.752;6.964;2023-04-25T11:19:58;21.77;;;19.67;;
39218;SDS011;24934;52.752;6.964;2023-04-25T11:22:26;23.50;;;20.98;;
39218;SDS011;24934;52.752;6.964;2023-04-25T11:24:52;22.05;;;20.02;;
39218;SDS011;24934;52.752;6.964;2023-04-25T11:27:18;23.00;;;20.55;;
39218;SDS011;24934;52.752;6.964;2023-04-25T11:29:43;21.30;;;19.17;;
39218;SDS011;24934;52.752;6.964;2023-04-25T11:32:09;20.35;;;18.40;;
39218;SDS011;24934;52.752;6.964;2023-04-25T11:34:35;20.73;;;18.80;;
39218;SDS011;24934;52.752;6.964;2023-04-25T11:37:01;20.95;;;19.15;;
39218;SDS011;24934;52.752;6.964;2023-04-25T11:39:28;24.17;;;21.25;;
39218;SDS011;24934;52.752;6.964;2023-04-25T11:41:54;25.17;;;20.70;;
39218;SDS011;24934;52.752;6.964;2023-04-25T11:44:22;24.95;;;21.48;;
39218;SDS011;24934;52.752;6.964;2023-04-25T11:46:48;25.00;;;20.10;;
39218;SDS011;24934;52.752;6.964;2023-04-25T11:49:14;24.27;;;21.67;;
39218;SDS011;24934;52.752;6.964;2023-04-25T11:51:43;24.30;;;21.38;;
39218;SDS011;24934;52.752;6.964;2023-04-25T11:54:11;25.07;;;22.33;;
39218;SDS011;24934;52.752;6.964;2023-04-25T11:56:41;25.23;;;22.80;;
39218;SDS011;24934;52.752;6.964;2023-04-25T11:59:07;22.90;;;20.70;;
39218;SDS011;24934;52.752;6.964;2023-04-25T12:01:34;22.37;;;20.10;;
39218;SDS011;24934;52.752;6.964;2023-04-25T12:04:10;22.83;;;20.73;;
39218;SDS011;24934;52.752;6.964;2023-04-25T12:06:42;21.20;;;19.10;;
39218;SDS011;24934;52.752;6.964;2023-04-25T12:09:12;24.07;;;20.27;;
39218;SDS011;24934;52.752;6.964;2023-04-25T12:11:58;22.20;;;20.10;;
39218;SDS011;24934;52.752;6.964;2023-04-25T12:14:29;24.17;;;21.43;;
39218;SDS011;24934;52.752;6.964;2023-04-25T12:16:57;28.07;;;21.47;;
39218;SDS011;24934;52.752;6.964;2023-04-25T12:19:24;23.48;;;21.20;;
39218;SDS011;24934;52.752;6.964;2023-04-25T12:21:51;23.13;;;21.05;;
39218;SDS011;24934;52.752;6.964;2023-04-25T12:26:52;22.42;;;20.23;;
39218;SDS011;24934;52.752;6.964;2023-04-25T12:29:26;25.77;;;23.08;;
39218;SDS011;24934;52.752;6.964;2023-04-25T12:31:53;27.85;;;22.20;;
39218;SDS011;24934;52.752;6.964;2023-04-25T12:34:20;26.95;;;22.77;;
39218;SDS011;24934;52.752;6.964;2023-04-25T12:36:46;25.02;;;22.48;;
39218;SDS011;24934;52.752;6.964;2023-04-25T12:39:19;24.52;;;21.95;;
39218;SDS011;24934;52.752;6.964;2023-04-25T12:41:48;24.30;;;21.60;;
39218;SDS011;24934;52.752;6.964;2023-04-25T12:44:15;24.15;;;21.70;;
39218;SDS011;24934;52.752;6.964;2023-04-25T12:46:45;24.58;;;21.10;;
39218;SDS011;24934;52.752;6.964;2023-04-25T12:49:11;23.27;;;20.98;;
39218;SDS011;24934;52.752;6.964;2023-04-25T12:51:37;21.58;;;19.10;;
39218;SDS011;24934;52.752;6.964;2023-04-25T12:54:03;22.20;;;19.83;;
39218;SDS011;24934;52.752;6.964;2023-04-25T12:56:31;23.42;;;20.90;;
39218;SDS011;24934;52.752;6.964;2023-04-25T12:58:57;24.38;;;21.85;;
39218;SDS011;24934;52.752;6.964;2023-04-25T13:01:23;23.48;;;21.00;;
39218;SDS011;24934;52.752;6.964;2023-04-25T13:03:49;23.05;;;20.63;;
39218;SDS011;24934;52.752;6.964;2023-04-25T13:06:16;24.00;;;21.50;;
39218;SDS011;24934;52.752;6.964;2023-04-25T13:08:42;22.40;;;20.10;;
39218;SDS011;24934;52.752;6.964;2023-04-25T13:11:08;20.83;;;18.90;;
39218;SDS011;24934;52.752;6.964;2023-04-25T13:13:34;21.08;;;19.08;;
39218;SDS011;24934;52.752;6.964;2023-04-25T13:16:03;23.13;;;20.92;;
39218;SDS011;24934;52.752;6.964;2023-04-25T13:18:30;22.92;;;20.63;;
39218;SDS011;24934;52.752;6.964;2023-04-25T13:20:56;22.83;;;20.50;;
39218;SDS011;24934;52.752;6.964;2023-04-25T13:23:22;23.00;;;20.25;;
39218;SDS011;24934;52.752;6.964;2023-04-25T13:25:50;20.80;;;18.60;;
39218;SDS011;24934;52.752;6.964;2023-04-25T13:28:15;20.17;;;18.35;;
39218;SDS011;24934;52.752;6.964;2023-04-25T13:30:41;20.08;;;18.27;;
39218;SDS011;24934;52.752;6.964;2023-04-25T13:33:07;19.48;;;17.77;;
39218;SDS011;24934;52.752;6.964;2023-04-25T13:35:34;20.00;;;18.00;;
39218;SDS011;24934;52.752;6.964;2023-04-25T13:38:00;19.92;;;18.10;;
39218;SDS011;24934;52.752;6.964;2023-04-25T13:40:26;19.35;;;17.42;;
39218;SDS011;24934;52.752;6.964;2023-04-25T13:42:55;19.52;;;17.65;;
39218;SDS011;24934;52.752;6.964;2023-04-25T13:45:21;22.48;;;18.92;;
39218;SDS011;24934;52.752;6.964;2023-04-25T13:47:47;19.77;;;17.23;;
39218;SDS011;24934;52.752;6.964;2023-04-25T13:50:12;21.55;;;19.45;;
39218;SDS011;24934;52.752;6.964;2023-04-25T13:52:38;20.63;;;18.65;;
39218;SDS011;24934;52.752;6.964;2023-04-25T13:55:05;21.35;;;19.23;;
39218;SDS011;24934;52.752;6.964;2023-04-25T13:57:32;19.75;;;18.05;;
39218;SDS011;24934;52.752;6.964;2023-04-25T13:59:58;18.60;;;16.67;;
39218;SDS011;24934;52.752;6.964;2023-04-25T14:02:24;18.95;;;17.17;;
39218;SDS011;24934;52.752;6.964;2023-04-25T14:04:50;22.63;;;18.13;;
39218;SDS011;24934;52.752;6.964;2023-04-25T14:07:15;19.17;;;17.38;;
39218;SDS011;24934;52.752;6.964;2023-04-25T14:09:41;18.67;;;16.98;;
39218;SDS011;24934;52.752;6.964;2023-04-25T14:12:07;18.30;;;16.70;;
39218;SDS011;24934;52.752;6.964;2023-04-25T14:14:33;19.73;;;17.80;;
39218;SDS011;24934;52.752;6.964;2023-04-25T14:16:58;20.23;;;18.20;;
39218;SDS011;24934;52.752;6.964;2023-04-25T14:19:24;16.85;;;15.32;;
39218;SDS011;24934;52.752;6.964;2023-04-25T14:21:50;18.08;;;16.17;;
39218;SDS011;24934;52.752;6.964;2023-04-25T14:24:15;16.40;;;14.85;;
39218;SDS011;24934;52.752;6.964;2023-04-25T14:26:41;18.33;;;16.70;;
39218;SDS011;24934;52.752;6.964;2023-04-25T14:29:08;20.00;;;18.10;;
39218;SDS011;24934;52.752;6.964;2023-04-25T14:31:34;18.07;;;16.67;;